Time;durP1;ratioP1;P1;durP2;ratioP2;P2;SDS_P1;SDS_P2;PMS_P1;PMS_P2;Temp;Humidity;BMP_temperature;BMP_pressure;BME280_temperature;BME280_humidity;BME280_pressure;Samples;Min_cycle;Max_cycle;Signal;HPM_P1;HPM_P2
2022/04/11 00:02:02;;;;;;;;;;;-0.50;99.90;;;;;;5064507;28;19920;-76
2022/04/11 00:04:29;;;;;;;;;;;-0.50;99.90;;;;;;5056303;28;19921;-76
2022/04/11 00:06:55;;;;;;;;;;;-0.50;99.90;;;;;;5071374;28;19939;-76
2022/04/11 00:09:22;;;;;;;;;;;-0.50;99.90;;;;;;5067193;28;19920;-76
2022/04/11 00:11:49;;;;;;;;;;;-0.40;99.90;;;;;;5069106;28;20371;-76
2022/04/11 00:14:15;;;;;;;;;;;-0.40;99.90;;;;;;5070517;28;19942;-76
2022/04/11 00:16:42;;;;;;;;;;;-0.40;99.90;;;;;;5062680;28;19928;-76
2022/04/11 00:19:08;;;;;;;;;;;-0.30;99.90;;;;;;5063146;28;19924;-76
2022/04/11 00:21:35;;;;;;;;;;;-0.30;99.90;;;;;;5069841;28;20624;-76
2022/04/11 00:24:04;;;;;;;;;;;-0.30;99.90;;;;;;5068738;28;19927;-76
2022/04/11 00:26:31;;;;;;;;;;;-0.40;99.90;;;;;;5071781;28;19925;-76
2022/04/11 00:28:58;;;;;;;;;;;-0.40;99.90;;;;;;5069863;28;19924;-76
2022/04/11 00:31:24;;;;;;;;;;;-0.50;99.90;;;;;;5069965;28;19948;-76
2022/04/11 00:33:51;;;;;;;;;;;-0.60;99.90;;;;;;5065717;28;19921;-76
2022/04/11 00:36:18;;;;;;;;;;;-0.60;99.90;;;;;;5071365;28;19920;-76
2022/04/11 00:38:44;;;;;;;;;;;-0.60;99.90;;;;;;5067184;28;20403;-76
2022/04/11 00:41:11;;;;;;;;;;;-0.60;99.90;;;;;;5103686;28;20003;-76
2022/04/11 00:43:39;;;;;;;;;;;-0.60;99.90;;;;;;5069958;28;19920;-76
2022/04/11 00:46:06;;;;;;;;;;;-0.70;99.90;;;;;;5071900;28;19928;-76
2022/04/11 00:48:33;;;;;;;;;;;-0.70;99.90;;;;;;5062693;28;21630;-76
2022/04/11 00:51:08;;;;;;;;;;;-0.70;99.90;;;;;;5069295;28;19927;-76
2022/04/11 00:53:37;;;;;;;;;;;-0.60;99.90;;;;;;5067934;28;19966;-76
2022/04/11 00:56:05;;;;;;;;;;;-0.70;99.90;;;;;;5065008;28;19928;-76
2022/04/11 00:58:32;;;;;;;;;;;-0.70;99.90;;;;;;5069472;28;19927;-76
2022/04/11 01:00:58;;;;;;;;;;;-0.70;99.90;;;;;;5068488;28;20266;-76
2022/04/11 01:03:32;;;;;;;;;;;-0.70;99.90;;;;;;5070465;28;20007;-76
2022/04/11 01:06:02;;;;;;;;;;;-0.70;99.90;;;;;;5062922;28;19986;-76
2022/04/11 01:08:36;;;;;;;;;;;-0.60;99.90;;;;;;5060947;28;20363;-76
2022/04/11 01:11:03;;;;;;;;;;;-0.60;99.90;;;;;;5061251;28;20014;-76
2022/04/11 01:13:30;;;;;;;;;;;-0.60;99.90;;;;;;5065669;28;20071;-76
2022/04/11 01:15:58;;;;;;;;;;;-0.60;99.90;;;;;;5057241;28;20011;-76
2022/04/11 01:18:25;;;;;;;;;;;-0.50;99.90;;;;;;5068203;28;19947;-76
2022/04/11 01:20:52;;;;;;;;;;;-0.50;99.90;;;;;;5067119;28;19924;-76
2022/04/11 01:23:20;;;;;;;;;;;-0.50;99.90;;;;;;5069199;28;19920;-76
2022/04/11 01:25:50;;;;;;;;;;;-0.40;99.90;;;;;;5069225;28;20494;-76
2022/04/11 01:28:18;;;;;;;;;;;-0.40;99.90;;;;;;5073989;28;20354;-76
2022/04/11 01:30:44;;;;;;;;;;;-0.40;99.90;;;;;;5066718;28;19920;-76
2022/04/11 01:33:15;;;;;;;;;;;-0.40;99.90;;;;;;5071905;28;19931;-76
2022/04/11 01:35:42;;;;;;;;;;;-0.40;99.90;;;;;;5074008;28;19920;-76
2022/04/11 01:38:08;;;;;;;;;;;-0.40;99.90;;;;;;5073707;28;19950;-76
2022/04/11 01:40:35;;;;;;;;;;;-0.50;99.90;;;;;;5072676;28;20386;-76
2022/04/11 01:43:02;;;;;;;;;;;-0.50;99.90;;;;;;5070027;28;19981;-75
2022/04/11 01:45:31;;;;;;;;;;;-0.50;99.90;;;;;;5072998;28;19927;-76
2022/04/11 01:47:57;;;;;;;;;;;-0.50;99.90;;;;;;5070669;28;19924;-76
2022/04/11 01:50:24;;;;;;;;;;;-0.60;99.90;;;;;;5069580;28;19931;-76
2022/04/11 01:52:50;;;;;;;;;;;-0.60;99.90;;;;;;5104005;28;19920;-76
2022/04/11 01:55:17;;;;;;;;;;;-0.60;99.90;;;;;;5073487;28;19921;-76
2022/04/11 01:57:45;;;;;;;;;;;-0.60;99.90;;;;;;5073155;28;19920;-76
2022/04/11 02:00:12;;;;;;;;;;;-0.60;99.90;;;;;;5065549;28;20294;-76
2022/04/11 02:02:38;;;;;;;;;;;-0.50;99.90;;;;;;5097137;28;20008;-76
2022/04/11 02:05:05;;;;;;;;;;;-0.40;99.90;;;;;;5071652;28;19959;-76
2022/04/11 02:07:33;;;;;;;;;;;-0.40;99.90;;;;;;5070602;28;19953;-76
2022/04/11 02:09:59;;;;;;;;;;;-0.30;99.90;;;;;;5070094;28;20002;-76
2022/04/11 02:12:26;;;;;;;;;;;-0.20;99.90;;;;;;5071924;28;19924;-76
2022/04/11 02:14:52;;;;;;;;;;;-0.10;99.90;;;;;;5069492;28;20381;-76
2022/04/11 02:17:19;;;;;;;;;;;-0.10;99.90;;;;;;5071625;28;20385;-76
2022/04/11 02:19:48;;;;;;;;;;;0.00;99.90;;;;;;5071151;28;19951;-76
2022/04/11 02:22:17;;;;;;;;;;;0.00;99.90;;;;;;5067111;28;19995;-76
2022/04/11 02:24:44;;;;;;;;;;;0.10;99.90;;;;;;5076882;28;19934;-76
2022/04/11 02:27:10;;;;;;;;;;;0.10;99.90;;;;;;5078633;28;19920;-75
2022/04/11 02:29:37;;;;;;;;;;;0.20;99.90;;;;;;5068022;28;20004;-75
2022/04/11 02:32:04;;;;;;;;;;;0.20;99.90;;;;;;5084219;28;19927;-77
2022/04/11 02:34:31;;;;;;;;;;;0.20;99.90;;;;;;5070826;28;19920;-76
2022/04/11 02:36:57;;;;;;;;;;;0.20;99.90;;;;;;5063120;28;19921;-76
2022/04/11 02:39:24;;;;;;;;;;;0.30;99.90;;;;;;5067405;28;19920;-76
2022/04/11 02:41:51;;;;;;;;;;;0.30;99.90;;;;;;5071007;28;20274;-76
2022/04/11 02:44:17;;;;;;;;;;;0.30;99.90;;;;;;5071375;28;19921;-76
2022/04/11 02:46:47;;;;;;;;;;;0.40;99.90;;;;;;5071537;28;19926;-76
2022/04/11 02:49:13;;;;;;;;;;;0.40;99.90;;;;;;5086006;28;19926;-76
2022/04/11 02:51:40;;;;;;;;;;;0.40;99.90;;;;;;5072122;28;19921;-76
2022/04/11 02:54:10;;;;;;;;;;;0.40;99.90;;;;;;5067644;28;19927;-76
2022/04/11 02:56:36;;;;;;;;;;;0.40;99.90;;;;;;5102154;28;19942;-76
2022/04/11 02:59:03;;;;;;;;;;;0.40;99.90;;;;;;5070131;28;19986;-76
2022/04/11 03:01:30;;;;;;;;;;;0.30;99.90;;;;;;5069418;28;20504;-76
2022/04/11 03:03:56;;;;;;;;;;;0.30;99.90;;;;;;5067206;28;19920;-76
2022/04/11 03:06:28;;;;;;;;;;;0.40;99.90;;;;;;5071028;28;20425;-76
2022/04/11 03:08:55;;;;;;;;;;;0.40;99.90;;;;;;5067121;28;19920;-76
2022/04/11 03:11:21;;;;;;;;;;;0.40;99.90;;;;;;5060363;28;20379;-76
2022/04/11 03:13:48;;;;;;;;;;;0.40;99.90;;;;;;5063891;28;19920;-76
2022/04/11 03:16:17;;;;;;;;;;;0.40;99.90;;;;;;5070564;28;19955;-76
2022/04/11 03:18:44;;;;;;;;;;;0.40;99.90;;;;;;5067400;28;20028;-76
2022/04/11 03:21:11;;;;;;;;;;;0.40;99.90;;;;;;5068401;28;19924;-76
2022/04/11 03:23:37;;;;;;;;;;;0.40;99.90;;;;;;5068112;28;19920;-76
2022/04/11 03:26:04;;;;;;;;;;;0.40;99.90;;;;;;5057042;28;19924;-76
2022/04/11 03:28:30;;;;;;;;;;;0.40;99.90;;;;;;5059790;28;19925;-76
2022/04/11 03:30:57;;;;;;;;;;;0.30;99.90;;;;;;5070179;28;19927;-76
2022/04/11 03:33:24;;;;;;;;;;;0.20;99.90;;;;;;5072368;28;19960;-76
2022/04/11 03:35:51;;;;;;;;;;;0.20;99.90;;;;;;5072404;28;19928;-76
2022/04/11 03:38:18;;;;;;;;;;;0.20;99.90;;;;;;5068670;28;19920;-76
2022/04/11 03:40:44;;;;;;;;;;;0.20;99.90;;;;;;5094108;27;20007;-76
2022/04/11 03:43:11;;;;;;;;;;;0.20;99.90;;;;;;5072601;28;19984;-76
2022/04/11 03:45:38;;;;;;;;;;;0.20;99.90;;;;;;5098914;28;20434;-76
2022/04/11 03:48:05;;;;;;;;;;;0.20;99.90;;;;;;5072472;28;19928;-76
2022/04/11 03:50:32;;;;;;;;;;;0.30;99.90;;;;;;5072117;28;19924;-76
2022/04/11 03:52:58;;;;;;;;;;;0.30;99.90;;;;;;5067394;28;20560;-76
2022/04/11 03:55:25;;;;;;;;;;;0.30;99.90;;;;;;5072325;28;20311;-76
2022/04/11 03:57:52;;;;;;;;;;;0.30;99.90;;;;;;5070210;28;20402;-75
2022/04/11 04:00:18;;;;;;;;;;;0.30;99.90;;;;;;5068827;28;19921;-76
2022/04/11 04:02:45;;;;;;;;;;;0.30;99.90;;;;;;5071739;28;19920;-76
2022/04/11 04:05:18;;;;;;;;;;;0.30;99.90;;;;;;5069172;28;19925;-76
2022/04/11 04:07:45;;;;;;;;;;;0.40;99.90;;;;;;5074571;28;19927;-76
2022/04/11 04:10:11;;;;;;;;;;;0.40;99.90;;;;;;5069462;28;20761;-75
2022/04/11 04:12:38;;;;;;;;;;;0.40;99.90;;;;;;5067988;28;19920;-76
2022/04/11 04:15:05;;;;;;;;;;;0.40;99.90;;;;;;5059790;28;19920;-76
2022/04/11 04:17:31;;;;;;;;;;;0.30;99.90;;;;;;5066933;28;20038;-76
2022/04/11 04:20:04;;;;;;;;;;;0.20;99.90;;;;;;5066066;28;20742;-76
2022/04/11 04:22:31;;;;;;;;;;;0.20;99.90;;;;;;5069295;28;19920;-76
2022/04/11 04:24:58;;;;;;;;;;;0.20;99.90;;;;;;5068986;28;20001;-76
2022/04/11 04:27:24;;;;;;;;;;;0.10;99.90;;;;;;5064148;28;19920;-76
2022/04/11 04:29:51;;;;;;;;;;;0.00;99.90;;;;;;5066451;28;19920;-76
2022/04/11 04:32:18;;;;;;;;;;;0.00;99.90;;;;;;5065428;28;19921;-75
2022/04/11 04:34:45;;;;;;;;;;;-0.10;99.90;;;;;;5066734;28;20414;-76
2022/04/11 04:37:14;;;;;;;;;;;-0.10;99.90;;;;;;5065705;28;19920;-76
2022/04/11 04:39:48;;;;;;;;;;;-0.10;99.90;;;;;;5086525;28;19921;-76
2022/04/11 04:42:21;;;;;;;;;;;-0.20;99.90;;;;;;5070878;28;19926;-76
2022/04/11 04:44:50;;;;;;;;;;;-0.20;99.90;;;;;;5063323;28;19920;-76
2022/04/11 04:47:17;;;;;;;;;;;-0.20;99.90;;;;;;5069148;28;19921;-76
2022/04/11 04:49:46;;;;;;;;;;;-0.30;99.90;;;;;;5070376;28;19951;-76
2022/04/11 04:52:13;;;;;;;;;;;-0.40;99.90;;;;;;5061784;28;19924;-76
2022/04/11 04:54:40;;;;;;;;;;;-0.30;99.90;;;;;;5072549;28;19942;-77
2022/04/11 04:57:07;;;;;;;;;;;-0.30;99.90;;;;;;5069087;28;19924;-76
2022/04/11 04:59:35;;;;;;;;;;;-0.30;99.90;;;;;;5071307;28;20306;-76
2022/04/11 05:02:02;;;;;;;;;;;-0.30;99.90;;;;;;5077964;28;19966;-76
2022/04/11 05:04:29;;;;;;;;;;;-0.30;99.90;;;;;;5067688;28;20015;-76
2022/04/11 05:06:55;;;;;;;;;;;-0.30;99.90;;;;;;5064280;28;19925;-76
2022/04/11 05:09:25;;;;;;;;;;;-0.20;99.90;;;;;;5060182;28;19924;-76
2022/04/11 05:11:52;;;;;;;;;;;-0.20;99.90;;;;;;5062114;28;19999;-76
2022/04/11 05:14:25;;;;;;;;;;;-0.20;99.90;;;;;;5064648;28;20264;-76
2022/04/11 05:16:52;;;;;;;;;;;-0.20;99.90;;;;;;5065155;28;19935;-76
2022/04/11 05:19:19;;;;;;;;;;;-0.20;99.90;;;;;;5066871;28;19924;-76
2022/04/11 05:21:46;;;;;;;;;;;-0.20;99.90;;;;;;5069374;28;20411;-76
2022/04/11 05:24:15;;;;;;;;;;;-0.10;99.90;;;;;;5068053;28;19924;-76
2022/04/11 05:26:41;;;;;;;;;;;-0.10;99.90;;;;;;5069610;28;19924;-76
2022/04/11 05:29:08;;;;;;;;;;;-0.10;99.90;;;;;;5062929;28;19932;-77
2022/04/11 05:31:34;;;;;;;;;;;0.00;99.90;;;;;;5070034;28;19999;-77
2022/04/11 05:34:05;;;;;;;;;;;0.10;99.90;;;;;;5064534;28;19933;-77
2022/04/11 05:36:32;;;;;;;;;;;0.10;99.90;;;;;;5070506;28;19925;-76
2022/04/11 05:38:59;;;;;;;;;;;0.20;99.90;;;;;;5067678;28;19928;-78
2022/04/11 05:41:28;;;;;;;;;;;0.30;99.90;;;;;;5071234;28;19932;-77
2022/04/11 05:43:55;;;;;;;;;;;0.30;99.90;;;;;;5065864;28;19924;-76
2022/04/11 05:46:21;;;;;;;;;;;0.40;99.90;;;;;;5067372;28;19947;-76
2022/04/11 05:48:48;;;;;;;;;;;0.50;99.90;;;;;;5066568;28;20607;-76
2022/04/11 05:51:15;;;;;;;;;;;0.60;99.90;;;;;;5065092;28;19939;-77
2022/04/11 05:53:41;;;;;;;;;;;0.70;99.90;;;;;;5072394;28;19931;-77
2022/04/11 05:56:08;;;;;;;;;;;0.80;99.90;;;;;;5066983;28;20371;-77
2022/04/11 05:58:35;;;;;;;;;;;0.90;99.90;;;;;;5067876;28;19924;-77
2022/04/11 06:01:01;;;;;;;;;;;1.00;99.90;;;;;;5066070;28;19967;-76
2022/04/11 06:03:28;;;;;;;;;;;1.10;99.90;;;;;;5062205;28;19928;-77
2022/04/11 06:05:55;;;;;;;;;;;1.30;99.90;;;;;;5061832;28;19927;-77
2022/04/11 06:08:22;;;;;;;;;;;1.90;99.90;;;;;;5065030;28;20652;-77
2022/04/11 06:10:51;;;;;;;;;;;3.10;99.90;;;;;;5063898;28;19920;-77
2022/04/11 06:13:17;;;;;;;;;;;4.20;99.90;;;;;;5101197;28;19926;-78
2022/04/11 06:15:44;;;;;;;;;;;5.20;99.90;;;;;;5065691;28;19981;-75
2022/04/11 06:18:11;;;;;;;;;;;6.00;99.90;;;;;;5067858;28;19924;-75
2022/04/11 06:20:39;;;;;;;;;;;6.80;99.90;;;;;;5065404;28;19920;-76
2022/04/11 06:23:06;;;;;;;;;;;7.30;99.90;;;;;;5081666;28;19926;-75
2022/04/11 06:25:33;;;;;;;;;;;7.80;99.90;;;;;;5066135;28;19927;-75
2022/04/11 06:27:59;;;;;;;;;;;8.50;99.90;;;;;;5070187;28;20326;-76
2022/04/11 06:30:26;;;;;;;;;;;9.30;99.90;;;;;;5068038;28;19927;-76
2022/04/11 06:32:55;;;;;;;;;;;9.80;99.90;;;;;;5068513;28;19920;-76
2022/04/11 06:35:21;;;;;;;;;;;9.90;99.90;;;;;;5071208;28;19920;-76
2022/04/11 06:37:49;;;;;;;;;;;10.50;99.90;;;;;;5072308;28;19924;-77
2022/04/11 06:40:17;;;;;;;;;;;10.80;99.90;;;;;;5067795;28;19920;-75
2022/04/11 06:42:43;;;;;;;;;;;11.40;99.90;;;;;;5067607;28;19932;-75
2022/04/11 06:45:10;;;;;;;;;;;11.90;99.90;;;;;;5066843;28;19928;-75
2022/04/11 06:47:46;;;;;;;;;;;11.90;99.90;;;;;;5092682;28;20019;-74
2022/04/11 06:50:12;;;;;;;;;;;11.60;99.90;;;;;;5059138;28;19920;-75
2022/04/11 06:52:41;;;;;;;;;;;11.80;99.90;;;;;;5070100;28;19925;-74
2022/04/11 06:55:08;;;;;;;;;;;11.40;99.90;;;;;;5068217;28;19947;-74
2022/04/11 06:57:38;;;;;;;;;;;11.10;99.90;;;;;;5069046;28;19924;-75
2022/04/11 07:00:05;;;;;;;;;;;11.10;99.90;;;;;;5069664;28;19921;-75
2022/04/11 07:02:32;;;;;;;;;;;11.50;99.90;;;;;;5054927;28;19975;-74
2022/04/11 07:04:58;;;;;;;;;;;11.60;99.90;;;;;;5053124;28;19921;-75
2022/04/11 07:07:25;;;;;;;;;;;11.50;99.90;;;;;;5064406;28;19920;-75
2022/04/11 07:09:52;;;;;;;;;;;11.40;99.90;;;;;;5071037;28;19924;-74
2022/04/11 07:12:18;;;;;;;;;;;11.30;99.90;;;;;;5065869;28;19920;-74
2022/04/11 07:14:45;;;;;;;;;;;11.30;99.90;;;;;;5072157;28;19942;-75
2022/04/11 07:17:11;;;;;;;;;;;11.40;99.90;;;;;;5069474;28;19925;-75
2022/04/11 07:19:38;;;;;;;;;;;11.30;99.90;;;;;;5075571;28;20003;-75
2022/04/11 07:22:05;;;;;;;;;;;11.60;99.90;;;;;;5071519;28;20015;-74
2022/04/11 07:24:31;;;;;;;;;;;11.80;99.90;;;;;;5071977;28;19920;-73
2022/04/11 07:27:01;;;;;;;;;;;12.30;99.90;;;;;;5072145;28;19920;-73
2022/04/11 07:29:28;;;;;;;;;;;12.60;99.90;;;;;;5058044;28;20016;-73
2022/04/11 07:31:56;;;;;;;;;;;13.00;99.90;;;;;;5070380;28;19920;-73
2022/04/11 07:34:23;;;;;;;;;;;12.90;99.90;;;;;;5076104;28;19936;-73
2022/04/11 07:36:50;;;;;;;;;;;13.10;99.90;;;;;;5069645;28;19927;-73
2022/04/11 07:39:18;;;;;;;;;;;13.00;99.90;;;;;;5069457;28;20015;-73
2022/04/11 07:41:45;;;;;;;;;;;12.90;99.90;;;;;;5070153;28;19927;-73
2022/04/11 07:44:11;;;;;;;;;;;12.60;99.90;;;;;;5060510;28;20295;-73
2022/04/11 07:46:38;;;;;;;;;;;13.00;99.90;;;;;;5060105;28;19935;-74
2022/04/11 07:49:05;;;;;;;;;;;13.60;99.90;;;;;;5070289;28;19920;-74
2022/04/11 07:51:32;;;;;;;;;;;13.80;99.90;;;;;;5066249;28;19961;-74
2022/04/11 07:53:58;;;;;;;;;;;13.90;99.90;;;;;;5066875;28;19920;-74
2022/04/11 07:56:26;;;;;;;;;;;13.90;99.90;;;;;;5068643;28;19920;-74
2022/04/11 07:58:53;;;;;;;;;;;14.00;99.90;;;;;;5069319;28;20003;-74
2022/04/11 08:01:21;;;;;;;;;;;13.60;99.90;;;;;;5069950;28;20526;-74
2022/04/11 08:03:48;;;;;;;;;;;13.70;99.90;;;;;;5070541;28;19927;-74
2022/04/11 08:06:17;;;;;;;;;;;14.20;99.90;;;;;;5068650;28;19921;-74
2022/04/11 08:08:47;;;;;;;;;;;14.50;99.90;;;;;;5071027;28;19927;-74
2022/04/11 08:11:15;;;;;;;;;;;14.00;99.90;;;;;;5067588;28;20458;-74
2022/04/11 08:13:47;;;;;;;;;;;14.00;99.90;;;;;;5066651;28;19927;-74
2022/04/11 08:16:13;;;;;;;;;;;13.60;99.90;;;;;;5067735;28;19924;-74
2022/04/11 08:18:40;;;;;;;;;;;13.90;99.90;;;;;;5064110;28;19921;-75
2022/04/11 08:21:07;;;;;;;;;;;14.20;99.90;;;;;;5068772;28;19927;-75
2022/04/11 08:23:33;;;;;;;;;;;14.70;99.90;;;;;;5058495;28;20167;-74
2022/04/11 08:26:00;;;;;;;;;;;14.60;99.90;;;;;;5055867;28;20320;-74
2022/04/11 08:28:29;;;;;;;;;;;14.50;99.90;;;;;;5062524;28;19928;-75
2022/04/11 08:30:58;;;;;;;;;;;14.30;99.90;;;;;;5068262;28;19920;-75
2022/04/11 08:33:24;;;;;;;;;;;13.70;99.90;;;;;;5068846;28;20015;-74
2022/04/11 08:35:51;;;;;;;;;;;13.20;99.90;;;;;;5071302;28;20015;-74
2022/04/11 08:38:18;;;;;;;;;;;13.50;99.90;;;;;;5070027;28;20669;-74
2022/04/11 08:40:49;;;;;;;;;;;14.20;99.90;;;;;;5071188;28;19920;-74
2022/04/11 08:43:18;;;;;;;;;;;14.40;99.90;;;;;;5062789;28;19928;-75
2022/04/11 08:45:44;;;;;;;;;;;14.30;99.90;;;;;;5069860;28;19924;-74
2022/04/11 08:48:11;;;;;;;;;;;13.80;99.90;;;;;;5069716;28;19927;-74
2022/04/11 08:50:39;;;;;;;;;;;14.30;99.90;;;;;;5067842;28;19921;-74
2022/04/11 08:53:06;;;;;;;;;;;14.90;99.90;;;;;;5069602;28;20001;-74
2022/04/11 08:55:34;;;;;;;;;;;15.30;99.90;;;;;;5070488;28;20351;-75
2022/04/11 08:58:01;;;;;;;;;;;15.50;99.90;;;;;;5049648;28;19928;-75
2022/04/11 09:00:28;;;;;;;;;;;15.90;99.90;;;;;;5064172;28;19927;-74
2022/04/11 09:02:54;;;;;;;;;;;16.40;99.40;;;;;;5071050;28;20003;-75
2022/04/11 09:05:23;;;;;;;;;;;17.00;98.90;;;;;;5064703;28;20033;-74
2022/04/11 09:07:53;;;;;;;;;;;16.50;97.90;;;;;;5067174;28;19999;-75
2022/04/11 09:10:20;;;;;;;;;;;15.90;98.40;;;;;;5067250;28;19963;-74
2022/04/11 09:12:51;;;;;;;;;;;16.40;98.70;;;;;;5067652;28;20464;-74
2022/04/11 09:15:18;;;;;;;;;;;16.90;97.80;;;;;;5070931;28;19960;-73
2022/04/11 09:17:46;;;;;;;;;;;16.90;97.20;;;;;;5069952;28;19927;-74
2022/04/11 09:20:14;;;;;;;;;;;17.20;97.20;;;;;;5069697;28;19920;-73
2022/04/11 09:22:41;;;;;;;;;;;17.10;97.40;;;;;;5066977;28;19920;-74
2022/04/11 09:25:08;;;;;;;;;;;17.50;97.90;;;;;;5067455;28;20004;-75
2022/04/11 09:27:35;;;;;;;;;;;18.00;97.10;;;;;;5050375;28;19924;-74
2022/04/11 09:30:16;;;;;;;;;;;18.10;96.70;;;;;;5050832;28;19924;-74
2022/04/11 09:32:49;;;;;;;;;;;18.40;96.10;;;;;;5063235;28;19927;-75
2022/04/11 09:35:20;;;;;;;;;;;18.10;95.80;;;;;;5068850;28;19934;-75
2022/04/11 09:37:47;;;;;;;;;;;18.50;96.40;;;;;;5064802;28;19960;-75
2022/04/11 09:40:20;;;;;;;;;;;18.30;95.50;;;;;;5069007;28;19988;-75
2022/04/11 09:42:55;;;;;;;;;;;17.60;95.50;;;;;;5070182;28;19920;-74
2022/04/11 09:45:24;;;;;;;;;;;17.60;96.50;;;;;;5059276;28;19925;-74
2022/04/11 09:48:02;;;;;;;;;;;17.00;95.50;;;;;;5068109;28;19927;-74
2022/04/11 09:50:29;;;;;;;;;;;17.40;96.90;;;;;;5069020;28;19920;-74
2022/04/11 09:53:10;;;;;;;;;;;17.00;96.00;;;;;;5070801;28;19920;-74
2022/04/11 09:55:36;;;;;;;;;;;16.30;95.50;;;;;;5082442;28;19927;-74
2022/04/11 09:58:04;;;;;;;;;;;16.80;96.10;;;;;;5096372;28;19920;-74
2022/04/11 10:00:49;;;;;;;;;;;17.00;95.10;;;;;;5054140;28;19970;-74
2022/04/11 10:03:17;;;;;;;;;;;17.40;95.30;;;;;;5059738;28;20321;-74
2022/04/11 10:05:43;;;;;;;;;;;17.80;95.70;;;;;;5067117;28;19920;-74
2022/04/11 10:08:11;;;;;;;;;;;18.50;95.70;;;;;;5068912;28;20003;-74
2022/04/11 10:10:41;;;;;;;;;;;18.50;94.90;;;;;;5072754;28;19927;-74
2022/04/11 10:13:15;;;;;;;;;;;18.20;95.80;;;;;;5071597;28;20615;-75
2022/04/11 10:15:43;;;;;;;;;;;18.40;95.30;;;;;;5072199;28;19946;-75
2022/04/11 10:18:15;;;;;;;;;;;17.70;95.50;;;;;;5065375;28;19921;-75
2022/04/11 10:20:52;;;;;;;;;;;18.10;96.30;;;;;;5072399;28;20393;-74
2022/04/11 10:23:39;;;;;;;;;;;17.80;95.10;;;;;;5067615;28;19920;-75
2022/04/11 10:26:13;;;;;;;;;;;18.00;94.60;;;;;;5071316;28;19927;-74
2022/04/11 10:28:47;;;;;;;;;;;18.10;95.70;;;;;;5068900;28;19921;-73
2022/04/11 10:31:15;;;;;;;;;;;18.70;95.00;;;;;;5060863;28;19920;-74
2022/04/11 10:33:42;;;;;;;;;;;19.30;95.50;;;;;;5069355;28;20455;-75
2022/04/11 10:36:29;;;;;;;;;;;19.80;95.10;;;;;;5066277;28;19920;-75
2022/04/11 10:39:14;;;;;;;;;;;19.90;94.40;;;;;;5058252;28;19928;-75
2022/04/11 10:41:57;;;;;;;;;;;19.30;94.10;;;;;;5062344;28;19966;-74
2022/04/11 10:44:34;;;;;;;;;;;19.10;94.10;;;;;;5066927;28;19921;-75
2022/04/11 10:47:10;;;;;;;;;;;19.30;93.90;;;;;;5076527;28;19924;-75
2022/04/11 10:49:48;;;;;;;;;;;18.90;94.30;;;;;;5065707;28;19921;-75
2022/04/11 10:52:33;;;;;;;;;;;19.10;94.40;;;;;;5064409;28;19963;-74
2022/04/11 10:55:03;;;;;;;;;;;19.80;94.40;;;;;;5060195;28;19926;-74
2022/04/11 10:57:37;;;;;;;;;;;19.20;92.40;;;;;;5067381;28;19943;-75
2022/04/11 11:00:08;;;;;;;;;;;18.50;93.00;;;;;;5064209;28;19940;-74
2022/04/11 11:02:56;;;;;;;;;;;18.30;92.60;;;;;;5063966;28;19943;-74
2022/04/11 11:05:36;;;;;;;;;;;18.50;94.00;;;;;;5063562;28;19993;-75
2022/04/11 11:08:15;;;;;;;;;;;18.90;93.70;;;;;;5070107;28;19935;-75
2022/04/11 11:10:45;;;;;;;;;;;19.30;92.80;;;;;;5101664;28;19920;-74
2022/04/11 11:13:30;;;;;;;;;;;19.60;92.80;;;;;;5073910;28;20438;-74
2022/04/11 11:15:57;;;;;;;;;;;18.50;91.70;;;;;;5099077;27;19924;-75
2022/04/11 11:18:47;;;;;;;;;;;18.50;93.70;;;;;;5060056;28;19920;-75
2022/04/11 11:21:14;;;;;;;;;;;18.60;92.20;;;;;;5066402;28;19920;-75
2022/04/11 11:23:40;;;;;;;;;;;18.10;92.70;;;;;;5074793;28;19966;-74
2022/04/11 11:26:11;;;;;;;;;;;18.10;92.30;;;;;;5070383;28;19920;-74
2022/04/11 11:28:41;;;;;;;;;;;17.80;91.60;;;;;;5065985;28;20301;-74
2022/04/11 11:31:12;;;;;;;;;;;17.60;92.00;;;;;;5067334;28;19924;-75
2022/04/11 11:33:49;;;;;;;;;;;18.20;91.90;;;;;;5066552;28;19920;-75
2022/04/11 11:36:16;;;;;;;;;;;18.90;92.20;;;;;;5061640;28;21311;-75
2022/04/11 11:38:43;;;;;;;;;;;18.80;91.90;;;;;;5066627;28;19927;-74
2022/04/11 11:41:09;;;;;;;;;;;18.30;92.00;;;;;;5061141;28;19924;-74
2022/04/11 11:43:37;;;;;;;;;;;18.10;92.00;;;;;;5067583;28;19920;-74
2022/04/11 11:46:06;;;;;;;;;;;17.50;91.50;;;;;;5062657;28;20370;-75
2022/04/11 11:48:33;;;;;;;;;;;17.50;91.70;;;;;;5066821;28;19920;-73
2022/04/11 11:51:03;;;;;;;;;;;18.20;92.80;;;;;;5066187;28;19926;-73
2022/04/11 11:53:43;;;;;;;;;;;18.80;92.10;;;;;;5069743;28;19964;-73
2022/04/11 11:56:10;;;;;;;;;;;19.20;91.30;;;;;;5068491;28;20008;-74
2022/04/11 11:58:39;;;;;;;;;;;19.60;91.20;;;;;;5064483;28;19921;-73
2022/04/11 12:01:09;;;;;;;;;;;19.50;91.20;;;;;;5067818;28;19963;-72
2022/04/11 12:06:22;;;;;;;;;;;19.00;91.40;;;;;;5063425;28;19924;-73
2022/04/11 12:08:56;;;;;;;;;;;18.90;91.40;;;;;;5061962;28;19925;-73
2022/04/11 12:11:26;;;;;;;;;;;19.40;91.00;;;;;;5066702;28;20387;-73
2022/04/11 12:14:08;;;;;;;;;;;19.60;91.10;;;;;;5058284;28;19926;-74
2022/04/11 12:16:36;;;;;;;;;;;19.40;91.10;;;;;;5063477;28;19924;-73
2022/04/11 12:19:04;;;;;;;;;;;19.40;91.60;;;;;;5061898;28;19920;-73
2022/04/11 12:21:34;;;;;;;;;;;19.00;90.70;;;;;;5068493;28;19932;-74
2022/04/11 12:24:02;;;;;;;;;;;19.20;90.40;;;;;;5064978;28;19931;-74
2022/04/11 12:26:35;;;;;;;;;;;19.60;90.80;;;;;;5067260;28;19925;-74
2022/04/11 12:29:10;;;;;;;;;;;19.90;90.90;;;;;;5067189;28;19928;-74
2022/04/11 12:31:39;;;;;;;;;;;20.10;90.30;;;;;;5066511;28;20018;-74
2022/04/11 12:34:11;;;;;;;;;;;19.70;90.80;;;;;;5066143;28;19920;-74
2022/04/11 12:36:37;;;;;;;;;;;19.90;91.30;;;;;;5067703;28;19940;-73
2022/04/11 12:39:11;;;;;;;;;;;19.80;89.80;;;;;;5068349;28;19927;-73
2022/04/11 12:41:47;;;;;;;;;;;19.60;89.80;;;;;;5064729;28;19962;-74
2022/04/11 12:44:15;;;;;;;;;;;19.40;90.10;;;;;;5066555;28;19935;-73
2022/04/11 12:46:47;;;;;;;;;;;19.70;90.40;;;;;;5065847;28;19924;-73
2022/04/11 12:49:15;;;;;;;;;;;20.10;90.00;;;;;;5065581;28;19920;-73
2022/04/11 12:52:02;;;;;;;;;;;20.10;90.00;;;;;;5065860;28;19928;-73
2022/04/11 12:54:39;;;;;;;;;;;19.80;90.00;;;;;;5064456;28;19942;-73
2022/04/11 12:57:10;;;;;;;;;;;19.30;90.10;;;;;;5068026;28;20329;-73
2022/04/11 12:59:45;;;;;;;;;;;19.30;89.70;;;;;;5067201;28;19927;-73
2022/04/11 13:02:13;;;;;;;;;;;18.80;90.40;;;;;;5063698;28;20018;-73
2022/04/11 13:04:41;;;;;;;;;;;18.70;90.20;;;;;;5057306;28;19921;-73
2022/04/11 13:07:10;;;;;;;;;;;19.30;90.50;;;;;;5062982;28;19924;-74
2022/04/11 13:09:37;;;;;;;;;;;19.30;90.30;;;;;;5067171;28;19920;-74
2022/04/11 13:12:11;;;;;;;;;;;19.40;88.40;;;;;;5064504;28;19920;-74
2022/04/11 13:14:38;;;;;;;;;;;19.90;91.00;;;;;;5061738;28;20462;-73
2022/04/11 13:19:51;;;;;;;;;;;20.10;90.00;;;;;;5064316;28;20311;-74
2022/04/11 13:22:17;;;;;;;;;;;20.10;89.60;;;;;;5062817;28;19921;-74
2022/04/11 13:24:44;;;;;;;;;;;19.90;88.50;;;;;;5058288;28;20007;-74
2022/04/11 13:27:11;;;;;;;;;;;20.40;89.80;;;;;;5058901;28;20286;-74
2022/04/11 13:29:37;;;;;;;;;;;20.40;87.50;;;;;;5066941;28;19928;-74
2022/04/11 13:32:04;;;;;;;;;;;20.70;89.50;;;;;;5067222;28;19924;-74
2022/04/11 13:34:31;;;;;;;;;;;20.60;88.90;;;;;;5063262;28;19920;-74
2022/04/11 13:36:58;;;;;;;;;;;20.50;89.50;;;;;;5084803;28;19949;-74
2022/04/11 13:39:44;;;;;;;;;;;20.30;87.70;;;;;;5065296;28;19920;-73
2022/04/11 13:42:11;;;;;;;;;;;19.70;85.90;;;;;;5068263;28;19991;-73
2022/04/11 13:44:38;;;;;;;;;;;19.90;88.10;;;;;;5067948;28;19931;-74
2022/04/11 13:47:04;;;;;;;;;;;20.10;88.10;;;;;;5069341;28;19927;-73
2022/04/11 13:49:32;;;;;;;;;;;19.80;88.00;;;;;;5061246;28;19935;-74
2022/04/11 13:51:59;;;;;;;;;;;19.80;89.00;;;;;;5059359;28;19921;-73
2022/04/11 13:54:25;;;;;;;;;;;19.90;89.10;;;;;;5067674;28;20350;-74
2022/04/11 13:56:52;;;;;;;;;;;20.00;87.10;;;;;;5063578;28;20015;-74
2022/04/11 13:59:25;;;;;;;;;;;20.30;86.70;;;;;;5064060;28;19935;-74
2022/04/11 14:01:53;;;;;;;;;;;20.60;88.40;;;;;;5067512;28;19921;-73
2022/04/11 14:04:22;;;;;;;;;;;20.50;87.40;;;;;;5061543;28;20236;-73
2022/04/11 14:06:49;;;;;;;;;;;20.40;85.90;;;;;;5064022;28;19936;-74
2022/04/11 14:09:16;;;;;;;;;;;21.10;85.60;;;;;;5067028;28;19927;-74
2022/04/11 14:12:03;;;;;;;;;;;21.10;87.00;;;;;;5061644;28;19947;-73
2022/04/11 14:14:29;;;;;;;;;;;21.30;85.80;;;;;;5065345;28;19920;-73
2022/04/11 14:16:58;;;;;;;;;;;20.70;85.10;;;;;;5066233;28;20354;-73
2022/04/11 14:19:24;;;;;;;;;;;20.40;84.60;;;;;;5062564;28;19921;-73
2022/04/11 14:21:51;;;;;;;;;;;20.30;85.80;;;;;;5058691;28;20580;-73
2022/04/11 14:24:18;;;;;;;;;;;20.20;88.40;;;;;;5061703;28;19920;-73
2022/04/11 14:26:45;;;;;;;;;;;20.50;87.70;;;;;;5069027;28;19921;-74
2022/04/11 14:29:12;;;;;;;;;;;20.60;86.60;;;;;;5057232;28;19921;-73
2022/04/11 14:31:38;;;;;;;;;;;21.00;86.10;;;;;;5066673;28;20001;-74
2022/04/11 14:34:05;;;;;;;;;;;21.50;85.60;;;;;;5063658;28;20595;-74
2022/04/11 14:36:32;;;;;;;;;;;21.70;86.40;;;;;;5062788;28;19939;-74